Alice, Texas
Current Conditions -  °F | °C
As of 7:01 AM on Sunday 23 Nov 2014 (Local Time) from KALI Reporting Station
Haze Haze  
Wind Chill: 13°   Ceiling: Unl
Heat Index: 13°   Visibility: 5mi
Dew Point: 12°   Wind: 6mph
Humidity: 96%   Direction: 210°SSW
Pressure: 29.74"   Gusts: NA
Location:  27.75°N, 98.06°W
Report Text: KALI 231301Z AUTO 21005KT 5SM BR SCT001 13/12 A2974 RMK AO2 T01280122
Loading
Personal Weather Stations






























Interactive Weather Map New forecast layout! Learn more

10-Day Weather Forecast

Advertisements
Track Severe Weather on mobile